sensor_id;sensor_type;location;lat;lon;timestamp;P1;durP1;ratioP1;P2;durP2;ratioP2
14116;SDS011;7137;51.436;6.544;2023-08-07T00:00:35;9.63;;;2.77;;
14116;SDS011;7137;51.436;6.544;2023-08-07T00:03:36;8.30;;;2.40;;
14116;SDS011;7137;51.436;6.544;2023-08-07T00:06:38;8.60;;;2.50;;
14116;SDS011;7137;51.436;6.544;2023-08-07T00:09:41;8.53;;;2.63;;
14116;SDS011;7137;51.436;6.544;2023-08-07T00:12:43;6.93;;;2.00;;
14116;SDS011;7137;51.436;6.544;2023-08-07T00:15:44;9.77;;;2.17;;
14116;SDS011;7137;51.436;6.544;2023-08-07T00:18:46;7.73;;;2.20;;
14116;SDS011;7137;51.436;6.544;2023-08-07T00:21:47;11.23;;;2.47;;
14116;SDS011;7137;51.436;6.544;2023-08-07T00:24:50;8.80;;;2.17;;
14116;SDS011;7137;51.436;6.544;2023-08-07T00:27:52;10.07;;;2.20;;
14116;SDS011;7137;51.436;6.544;2023-08-07T00:30:53;7.80;;;2.40;;
14116;SDS011;7137;51.436;6.544;2023-08-07T00:33:55;7.93;;;2.07;;
14116;SDS011;7137;51.436;6.544;2023-08-07T00:36:57;8.30;;;2.40;;
14116;SDS011;7137;51.436;6.544;2023-08-07T00:40:00;8.97;;;2.70;;
14116;SDS011;7137;51.436;6.544;2023-08-07T00:43:01;9.53;;;2.50;;
14116;SDS011;7137;51.436;6.544;2023-08-07T00:46:03;9.80;;;2.63;;
14116;SDS011;7137;51.436;6.544;2023-08-07T00:49:05;8.50;;;2.30;;
14116;SDS011;7137;51.436;6.544;2023-08-07T00:52:08;6.37;;;2.23;;
14116;SDS011;7137;51.436;6.544;2023-08-07T00:55:12;10.27;;;2.83;;
14116;SDS011;7137;51.436;6.544;2023-08-07T00:58:14;7.50;;;2.37;;
14116;SDS011;7137;51.436;6.544;2023-08-07T01:01:15;8.43;;;2.50;;
14116;SDS011;7137;51.436;6.544;2023-08-07T01:04:17;8.33;;;2.27;;
14116;SDS011;7137;51.436;6.544;2023-08-07T01:07:19;11.33;;;2.63;;
14116;SDS011;7137;51.436;6.544;2023-08-07T01:10:24;10.20;;;2.37;;
14116;SDS011;7137;51.436;6.544;2023-08-07T01:13:46;10.40;;;2.83;;
14116;SDS011;7137;51.436;6.544;2023-08-07T01:16:58;11.80;;;2.80;;
14116;SDS011;7137;51.436;6.544;2023-08-07T01:20:05;9.10;;;2.70;;
14116;SDS011;7137;51.436;6.544;2023-08-07T01:23:09;9.50;;;2.70;;
14116;SDS011;7137;51.436;6.544;2023-08-07T01:26:10;10.00;;;2.60;;
14116;SDS011;7137;51.436;6.544;2023-08-07T01:29:12;10.67;;;2.77;;
14116;SDS011;7137;51.436;6.544;2023-08-07T01:32:27;7.97;;;2.37;;
14116;SDS011;7137;51.436;6.544;2023-08-07T01:35:39;10.70;;;2.90;;
14116;SDS011;7137;51.436;6.544;2023-08-07T01:38:44;8.70;;;2.40;;
14116;SDS011;7137;51.436;6.544;2023-08-07T01:41:50;12.20;;;2.77;;
14116;SDS011;7137;51.436;6.544;2023-08-07T01:44:51;11.07;;;2.90;;
14116;SDS011;7137;51.436;6.544;2023-08-07T01:47:53;11.97;;;3.17;;
14116;SDS011;7137;51.436;6.544;2023-08-07T01:50:55;11.13;;;2.60;;
14116;SDS011;7137;51.436;6.544;2023-08-07T01:53:58;10.20;;;2.90;;
14116;SDS011;7137;51.436;6.544;2023-08-07T01:57:00;9.40;;;2.93;;
14116;SDS011;7137;51.436;6.544;2023-08-07T02:00:02;11.57;;;3.40;;
14116;SDS011;7137;51.436;6.544;2023-08-07T02:03:04;9.10;;;3.00;;
14116;SDS011;7137;51.436;6.544;2023-08-07T02:06:05;10.33;;;3.00;;
14116;SDS011;7137;51.436;6.544;2023-08-07T02:09:08;11.37;;;3.07;;
14116;SDS011;7137;51.436;6.544;2023-08-07T02:12:10;8.63;;;2.90;;
14116;SDS011;7137;51.436;6.544;2023-08-07T02:15:11;13.37;;;2.90;;
14116;SDS011;7137;51.436;6.544;2023-08-07T02:18:13;9.53;;;2.73;;
14116;SDS011;7137;51.436;6.544;2023-08-07T02:21:14;9.03;;;3.30;;
14116;SDS011;7137;51.436;6.544;2023-08-07T02:24:17;9.30;;;3.00;;
14116;SDS011;7137;51.436;6.544;2023-08-07T02:27:20;9.63;;;2.87;;
14116;SDS011;7137;51.436;6.544;2023-08-07T02:30:21;8.20;;;2.93;;
14116;SDS011;7137;51.436;6.544;2023-08-07T02:33:23;15.37;;;4.30;;
14116;SDS011;7137;51.436;6.544;2023-08-07T02:36:24;10.70;;;3.07;;
14116;SDS011;7137;51.436;6.544;2023-08-07T02:39:27;13.37;;;3.50;;
14116;SDS011;7137;51.436;6.544;2023-08-07T02:42:29;8.30;;;3.00;;
14116;SDS011;7137;51.436;6.544;2023-08-07T02:45:30;10.00;;;2.73;;
14116;SDS011;7137;51.436;6.544;2023-08-07T02:48:32;11.63;;;3.27;;
14116;SDS011;7137;51.436;6.544;2023-08-07T02:51:33;11.77;;;3.63;;
14116;SDS011;7137;51.436;6.544;2023-08-07T02:54:36;11.80;;;3.13;;
14116;SDS011;7137;51.436;6.544;2023-08-07T02:57:38;15.03;;;3.33;;
14116;SDS011;7137;51.436;6.544;2023-08-07T03:00:39;14.50;;;3.80;;
14116;SDS011;7137;51.436;6.544;2023-08-07T03:03:41;11.37;;;3.33;;
14116;SDS011;7137;51.436;6.544;2023-08-07T03:06:42;10.33;;;3.30;;
14116;SDS011;7137;51.436;6.544;2023-08-07T03:09:46;12.53;;;3.57;;
14116;SDS011;7137;51.436;6.544;2023-08-07T03:12:48;12.43;;;3.30;;
14116;SDS011;7137;51.436;6.544;2023-08-07T03:15:49;11.90;;;3.60;;
14116;SDS011;7137;51.436;6.544;2023-08-07T03:18:51;12.90;;;3.53;;
14116;SDS011;7137;51.436;6.544;2023-08-07T03:21:52;12.20;;;3.37;;
14116;SDS011;7137;51.436;6.544;2023-08-07T03:24:55;13.33;;;3.97;;
14116;SDS011;7137;51.436;6.544;2023-08-07T03:27:57;10.50;;;3.80;;
14116;SDS011;7137;51.436;6.544;2023-08-07T03:30:59;11.43;;;3.93;;
14116;SDS011;7137;51.436;6.544;2023-08-07T03:34:00;12.10;;;3.33;;
14116;SDS011;7137;51.436;6.544;2023-08-07T03:37:02;8.93;;;3.23;;
14116;SDS011;7137;51.436;6.544;2023-08-07T03:40:06;9.70;;;3.23;;
14116;SDS011;7137;51.436;6.544;2023-08-07T03:43:08;10.60;;;3.13;;
14116;SDS011;7137;51.436;6.544;2023-08-07T03:46:10;11.47;;;3.23;;
14116;SDS011;7137;51.436;6.544;2023-08-07T03:49:11;9.53;;;3.93;;
14116;SDS011;7137;51.436;6.544;2023-08-07T03:52:13;10.70;;;3.30;;
14116;SDS011;7137;51.436;6.544;2023-08-07T03:55:16;10.20;;;3.30;;
14116;SDS011;7137;51.436;6.544;2023-08-07T03:58:18;12.47;;;3.30;;
14116;SDS011;7137;51.436;6.544;2023-08-07T04:01:20;9.27;;;3.27;;
14116;SDS011;7137;51.436;6.544;2023-08-07T04:04:21;10.10;;;3.60;;
14116;SDS011;7137;51.436;6.544;2023-08-07T04:07:23;9.77;;;3.40;;
14116;SDS011;7137;51.436;6.544;2023-08-07T04:10:26;10.70;;;3.17;;
14116;SDS011;7137;51.436;6.544;2023-08-07T04:13:29;11.03;;;3.43;;
14116;SDS011;7137;51.436;6.544;2023-08-07T04:16:30;14.33;;;3.63;;
14116;SDS011;7137;51.436;6.544;2023-08-07T04:19:32;12.80;;;3.57;;
14116;SDS011;7137;51.436;6.544;2023-08-07T04:22:34;13.97;;;4.03;;
14116;SDS011;7137;51.436;6.544;2023-08-07T04:25:37;11.60;;;3.13;;
14116;SDS011;7137;51.436;6.544;2023-08-07T04:28:39;14.63;;;3.93;;
14116;SDS011;7137;51.436;6.544;2023-08-07T04:31:41;15.97;;;3.77;;
14116;SDS011;7137;51.436;6.544;2023-08-07T04:34:42;9.67;;;3.63;;
14116;SDS011;7137;51.436;6.544;2023-08-07T04:37:44;12.63;;;3.67;;
14116;SDS011;7137;51.436;6.544;2023-08-07T04:40:47;13.13;;;3.60;;
14116;SDS011;7137;51.436;6.544;2023-08-07T04:43:49;13.67;;;3.40;;
14116;SDS011;7137;51.436;6.544;2023-08-07T04:46:51;12.93;;;4.23;;
14116;SDS011;7137;51.436;6.544;2023-08-07T04:49:52;10.67;;;3.63;;
14116;SDS011;7137;51.436;6.544;2023-08-07T04:52:54;11.63;;;3.60;;
14116;SDS011;7137;51.436;6.544;2023-08-07T04:55:59;11.33;;;3.40;;
14116;SDS011;7137;51.436;6.544;2023-08-07T04:59:01;9.10;;;3.07;;
14116;SDS011;7137;51.436;6.544;2023-08-07T05:02:02;10.60;;;3.80;;
14116;SDS011;7137;51.436;6.544;2023-08-07T05:05:05;11.00;;;3.70;;
14116;SDS011;7137;51.436;6.544;2023-08-07T05:08:09;11.60;;;3.57;;
14116;SDS011;7137;51.436;6.544;2023-08-07T05:11:12;12.63;;;3.50;;
14116;SDS011;7137;51.436;6.544;2023-08-07T05:14:13;11.53;;;4.07;;
14116;SDS011;7137;51.436;6.544;2023-08-07T05:17:15;11.33;;;4.30;;
14116;SDS011;7137;51.436;6.544;2023-08-07T05:20:17;12.50;;;3.60;;
14116;SDS011;7137;51.436;6.544;2023-08-07T05:23:19;14.10;;;4.20;;
14116;SDS011;7137;51.436;6.544;2023-08-07T05:26:22;12.97;;;4.03;;
14116;SDS011;7137;51.436;6.544;2023-08-07T05:29:23;9.87;;;3.70;;
14116;SDS011;7137;51.436;6.544;2023-08-07T05:32:25;11.50;;;3.80;;
14116;SDS011;7137;51.436;6.544;2023-08-07T05:35:27;11.27;;;4.00;;
14116;SDS011;7137;51.436;6.544;2023-08-07T05:38:28;11.30;;;4.20;;
14116;SDS011;7137;51.436;6.544;2023-08-07T05:41:31;10.30;;;4.20;;
14116;SDS011;7137;51.436;6.544;2023-08-07T05:44:33;11.50;;;4.43;;
14116;SDS011;7137;51.436;6.544;2023-08-07T05:47:35;9.30;;;4.83;;
14116;SDS011;7137;51.436;6.544;2023-08-07T05:50:36;10.93;;;4.60;;
14116;SDS011;7137;51.436;6.544;2023-08-07T05:53:38;15.37;;;4.40;;
14116;SDS011;7137;51.436;6.544;2023-08-07T05:56:41;10.83;;;4.07;;
14116;SDS011;7137;51.436;6.544;2023-08-07T05:59:42;10.70;;;4.03;;
14116;SDS011;7137;51.436;6.544;2023-08-07T06:02:44;11.87;;;4.90;;
14116;SDS011;7137;51.436;6.544;2023-08-07T06:05:45;11.53;;;4.57;;
14116;SDS011;7137;51.436;6.544;2023-08-07T06:08:47;12.77;;;4.70;;
14116;SDS011;7137;51.436;6.544;2023-08-07T06:11:50;11.53;;;4.53;;
14116;SDS011;7137;51.436;6.544;2023-08-07T06:14:52;11.57;;;4.60;;
14116;SDS011;7137;51.436;6.544;2023-08-07T06:17:53;11.40;;;4.87;;
14116;SDS011;7137;51.436;6.544;2023-08-07T06:20:55;12.97;;;4.57;;
14116;SDS011;7137;51.436;6.544;2023-08-07T06:23:57;14.97;;;5.40;;
14116;SDS011;7137;51.436;6.544;2023-08-07T06:27:01;10.63;;;4.50;;
14116;SDS011;7137;51.436;6.544;2023-08-07T06:30:03;9.77;;;4.53;;
14116;SDS011;7137;51.436;6.544;2023-08-07T06:33:06;10.67;;;3.77;;
14116;SDS011;7137;51.436;6.544;2023-08-07T06:36:07;9.93;;;4.30;;
14116;SDS011;7137;51.436;6.544;2023-08-07T06:39:09;12.50;;;4.37;;
14116;SDS011;7137;51.436;6.544;2023-08-07T06:42:12;12.57;;;4.37;;
14116;SDS011;7137;51.436;6.544;2023-08-07T06:45:14;12.40;;;4.53;;
14116;SDS011;7137;51.436;6.544;2023-08-07T06:48:15;12.10;;;4.73;;
14116;SDS011;7137;51.436;6.544;2023-08-07T06:51:17;12.67;;;4.47;;
14116;SDS011;7137;51.436;6.544;2023-08-07T06:54:18;11.30;;;4.50;;
14116;SDS011;7137;51.436;6.544;2023-08-07T06:57:21;12.60;;;4.30;;
14116;SDS011;7137;51.436;6.544;2023-08-07T07:00:23;8.50;;;4.20;;
14116;SDS011;7137;51.436;6.544;2023-08-07T07:03:25;12.17;;;4.60;;
14116;SDS011;7137;51.436;6.544;2023-08-07T07:06:26;9.97;;;4.23;;
14116;SDS011;7137;51.436;6.544;2023-08-07T07:09:28;14.07;;;4.70;;
14116;SDS011;7137;51.436;6.544;2023-08-07T07:12:31;10.60;;;4.43;;
14116;SDS011;7137;51.436;6.544;2023-08-07T07:15:32;15.70;;;5.03;;
14116;SDS011;7137;51.436;6.544;2023-08-07T07:18:34;13.67;;;4.90;;
14116;SDS011;7137;51.436;6.544;2023-08-07T07:21:36;12.13;;;5.10;;
14116;SDS011;7137;51.436;6.544;2023-08-07T07:24:37;10.77;;;4.63;;
14116;SDS011;7137;51.436;6.544;2023-08-07T07:27:40;10.43;;;5.17;;
14116;SDS011;7137;51.436;6.544;2023-08-07T07:30:42;13.97;;;5.90;;
14116;SDS011;7137;51.436;6.544;2023-08-07T07:33:43;11.40;;;5.20;;
14116;SDS011;7137;51.436;6.544;2023-08-07T07:36:46;12.53;;;4.90;;
14116;SDS011;7137;51.436;6.544;2023-08-07T07:39:48;12.67;;;5.10;;
14116;SDS011;7137;51.436;6.544;2023-08-07T07:42:50;11.00;;;5.07;;
14116;SDS011;7137;51.436;6.544;2023-08-07T07:45:52;12.90;;;4.70;;
14116;SDS011;7137;51.436;6.544;2023-08-07T07:48:54;10.83;;;4.33;;
14116;SDS011;7137;51.436;6.544;2023-08-07T07:51:56;10.10;;;3.63;;
14116;SDS011;7137;51.436;6.544;2023-08-07T07:54:57;8.50;;;3.77;;
14116;SDS011;7137;51.436;6.544;2023-08-07T07:58:00;10.70;;;4.00;;
14116;SDS011;7137;51.436;6.544;2023-08-07T08:01:02;8.13;;;3.53;;
14116;SDS011;7137;51.436;6.544;2023-08-07T08:04:04;10.23;;;3.50;;
14116;SDS011;7137;51.436;6.544;2023-08-07T08:07:05;9.17;;;3.57;;
14116;SDS011;7137;51.436;6.544;2023-08-07T08:10:08;9.90;;;3.60;;
14116;SDS011;7137;51.436;6.544;2023-08-07T08:13:11;8.50;;;3.33;;
14116;SDS011;7137;51.436;6.544;2023-08-07T08:16:13;8.77;;;3.60;;
14116;SDS011;7137;51.436;6.544;2023-08-07T08:19:14;10.60;;;3.30;;
14116;SDS011;7137;51.436;6.544;2023-08-07T08:22:16;8.07;;;3.13;;
14116;SDS011;7137;51.436;6.544;2023-08-07T08:25:18;8.80;;;3.23;;
14116;SDS011;7137;51.436;6.544;2023-08-07T08:28:21;8.87;;;2.60;;
14116;SDS011;7137;51.436;6.544;2023-08-07T08:31:22;6.73;;;2.53;;
14116;SDS011;7137;51.436;6.544;2023-08-07T08:34:25;7.27;;;2.40;;
14116;SDS011;7137;51.436;6.544;2023-08-07T08:37:27;6.57;;;2.10;;
14116;SDS011;7137;51.436;6.544;2023-08-07T08:40:29;6.93;;;2.10;;
14116;SDS011;7137;51.436;6.544;2023-08-07T08:43:34;5.87;;;2.20;;
14116;SDS011;7137;51.436;6.544;2023-08-07T08:46:36;9.10;;;2.67;;
14116;SDS011;7137;51.436;6.544;2023-08-07T08:49:43;8.33;;;2.70;;
14116;SDS011;7137;51.436;6.544;2023-08-07T08:52:47;6.70;;;2.40;;
14116;SDS011;7137;51.436;6.544;2023-08-07T08:55:51;7.30;;;2.47;;
14116;SDS011;7137;51.436;6.544;2023-08-07T08:58:54;7.97;;;3.03;;
14116;SDS011;7137;51.436;6.544;2023-08-07T09:01:56;7.67;;;3.30;;
14116;SDS011;7137;51.436;6.544;2023-08-07T09:04:58;10.00;;;3.10;;
14116;SDS011;7137;51.436;6.544;2023-08-07T09:07:59;8.30;;;2.90;;
14116;SDS011;7137;51.436;6.544;2023-08-07T09:11:02;7.83;;;3.00;;
14116;SDS011;7137;51.436;6.544;2023-08-07T09:14:05;10.70;;;3.10;;
14116;SDS011;7137;51.436;6.544;2023-08-07T09:17:07;8.03;;;3.00;;
14116;SDS011;7137;51.436;6.544;2023-08-07T09:20:09;7.73;;;3.10;;
14116;SDS011;7137;51.436;6.544;2023-08-07T09:23:14;10.90;;;3.40;;
14116;SDS011;7137;51.436;6.544;2023-08-07T09:26:21;9.10;;;3.03;;
14116;SDS011;7137;51.436;6.544;2023-08-07T09:29:26;11.67;;;3.90;;
14116;SDS011;7137;51.436;6.544;2023-08-07T09:32:28;11.03;;;3.33;;
14116;SDS011;7137;51.436;6.544;2023-08-07T09:35:31;8.57;;;3.57;;
14116;SDS011;7137;51.436;6.544;2023-08-07T09:38:33;9.80;;;3.30;;
14116;SDS011;7137;51.436;6.544;2023-08-07T09:41:35;10.70;;;3.40;;
14116;SDS011;7137;51.436;6.544;2023-08-07T09:44:38;15.47;;;3.70;;
14116;SDS011;7137;51.436;6.544;2023-08-07T09:47:39;12.27;;;3.77;;
14116;SDS011;7137;51.436;6.544;2023-08-07T09:50:41;8.83;;;3.10;;
14116;SDS011;7137;51.436;6.544;2023-08-07T09:53:42;8.60;;;2.70;;
14116;SDS011;7137;51.436;6.544;2023-08-07T09:56:44;10.27;;;2.73;;
14116;SDS011;7137;51.436;6.544;2023-08-07T09:59:50;8.63;;;2.50;;
14116;SDS011;7137;51.436;6.544;2023-08-07T10:02:53;9.07;;;3.33;;
14116;SDS011;7137;51.436;6.544;2023-08-07T10:05:55;8.50;;;2.43;;
14116;SDS011;7137;51.436;6.544;2023-08-07T10:08:57;9.83;;;2.50;;
14116;SDS011;7137;51.436;6.544;2023-08-07T10:12:00;8.43;;;2.43;;
14116;SDS011;7137;51.436;6.544;2023-08-07T10:15:05;10.40;;;2.40;;
14116;SDS011;7137;51.436;6.544;2023-08-07T10:18:07;7.90;;;2.50;;
14116;SDS011;7137;51.436;6.544;2023-08-07T10:21:09;9.70;;;2.00;;
14116;SDS011;7137;51.436;6.544;2023-08-07T10:24:12;6.23;;;1.83;;
14116;SDS011;7137;51.436;6.544;2023-08-07T10:27:16;8.40;;;2.20;;
14116;SDS011;7137;51.436;6.544;2023-08-07T10:30:21;7.23;;;2.20;;
14116;SDS011;7137;51.436;6.544;2023-08-07T10:33:24;6.83;;;1.80;;
14116;SDS011;7137;51.436;6.544;2023-08-07T10:36:31;7.33;;;2.30;;
14116;SDS011;7137;51.436;6.544;2023-08-07T10:39:33;7.47;;;2.10;;
14116;SDS011;7137;51.436;6.544;2023-08-07T10:42:51;7.67;;;2.20;;
14116;SDS011;7137;51.436;6.544;2023-08-07T10:45:55;7.13;;;2.10;;
14116;SDS011;7137;51.436;6.544;2023-08-07T10:49:03;7.17;;;2.30;;
14116;SDS011;7137;51.436;6.544;2023-08-07T10:52:07;7.70;;;2.47;;
14116;SDS011;7137;51.436;6.544;2023-08-07T10:55:12;7.60;;;2.30;;
14116;SDS011;7137;51.436;6.544;2023-08-07T10:58:21;8.17;;;2.00;;
14116;SDS011;7137;51.436;6.544;2023-08-07T11:01:39;8.37;;;2.00;;
14116;SDS011;7137;51.436;6.544;2023-08-07T11:04:42;6.63;;;2.30;;
14116;SDS011;7137;51.436;6.544;2023-08-07T11:07:44;5.77;;;1.80;;
14116;SDS011;7137;51.436;6.544;2023-08-07T11:10:46;6.77;;;1.87;;
14116;SDS011;7137;51.436;6.544;2023-08-07T11:13:48;5.50;;;1.80;;
14116;SDS011;7137;51.436;6.544;2023-08-07T11:16:51;7.77;;;2.30;;
14116;SDS011;7137;51.436;6.544;2023-08-07T11:19:53;6.73;;;1.83;;
14116;SDS011;7137;51.436;6.544;2023-08-07T11:22:56;6.47;;;2.30;;
14116;SDS011;7137;51.436;6.544;2023-08-07T11:25:58;6.37;;;1.90;;
14116;SDS011;7137;51.436;6.544;2023-08-07T11:28:59;7.70;;;2.03;;
14116;SDS011;7137;51.436;6.544;2023-08-07T11:32:03;7.33;;;1.80;;
14116;SDS011;7137;51.436;6.544;2023-08-07T11:35:05;6.87;;;2.20;;
14116;SDS011;7137;51.436;6.544;2023-08-07T11:38:08;6.90;;;1.80;;
14116;SDS011;7137;51.436;6.544;2023-08-07T11:41:10;7.80;;;2.33;;
14116;SDS011;7137;51.436;6.544;2023-08-07T11:44:12;4.50;;;1.80;;
14116;SDS011;7137;51.436;6.544;2023-08-07T11:47:16;7.43;;;1.93;;
14116;SDS011;7137;51.436;6.544;2023-08-07T11:50:17;6.63;;;1.73;;
14116;SDS011;7137;51.436;6.544;2023-08-07T11:53:19;6.43;;;1.83;;
14116;SDS011;7137;51.436;6.544;2023-08-07T11:56:23;6.73;;;1.60;;
14116;SDS011;7137;51.436;6.544;2023-08-07T11:59:25;6.63;;;1.77;;
14116;SDS011;7137;51.436;6.544;2023-08-07T12:02:28;7.37;;;2.07;;
14116;SDS011;7137;51.436;6.544;2023-08-07T12:05:37;7.50;;;1.93;;
14116;SDS011;7137;51.436;6.544;2023-08-07T12:08:39;4.97;;;1.63;;
14116;SDS011;7137;51.436;6.544;2023-08-07T12:11:42;5.87;;;1.80;;
14116;SDS011;7137;51.436;6.544;2023-08-07T12:14:43;4.80;;;1.60;;
14116;SDS011;7137;51.436;6.544;2023-08-07T12:17:47;6.80;;;1.67;;
14116;SDS011;7137;51.436;6.544;2023-08-07T12:20:49;4.27;;;1.47;;
14116;SDS011;7137;51.436;6.544;2023-08-07T12:23:51;7.00;;;1.80;;
14116;SDS011;7137;51.436;6.544;2023-08-07T12:26:56;6.83;;;1.87;;
14116;SDS011;7137;51.436;6.544;2023-08-07T12:29:58;5.77;;;1.70;;
14116;SDS011;7137;51.436;6.544;2023-08-07T12:33:01;4.07;;;1.67;;
14116;SDS011;7137;51.436;6.544;2023-08-07T12:36:04;5.07;;;1.47;;
14116;SDS011;7137;51.436;6.544;2023-08-07T12:39:08;4.60;;;1.40;;
14116;SDS011;7137;51.436;6.544;2023-08-07T12:42:09;5.03;;;1.80;;
14116;SDS011;7137;51.436;6.544;2023-08-07T12:45:11;4.30;;;1.50;;
14116;SDS011;7137;51.436;6.544;2023-08-07T12:48:15;6.07;;;1.70;;
14116;SDS011;7137;51.436;6.544;2023-08-07T12:51:18;6.87;;;1.97;;
14116;SDS011;7137;51.436;6.544;2023-08-07T12:54:19;5.33;;;1.63;;
14116;SDS011;7137;51.436;6.544;2023-08-07T12:57:22;7.00;;;1.83;;
14116;SDS011;7137;51.436;6.544;2023-08-07T13:00:23;6.70;;;1.70;;
14116;SDS011;7137;51.436;6.544;2023-08-07T13:03:27;5.07;;;1.40;;
14116;SDS011;7137;51.436;6.544;2023-08-07T13:06:28;6.27;;;2.00;;
14116;SDS011;7137;51.436;6.544;2023-08-07T13:09:30;4.93;;;1.50;;
14116;SDS011;7137;51.436;6.544;2023-08-07T13:12:33;4.13;;;1.60;;
14116;SDS011;7137;51.436;6.544;2023-08-07T13:15:35;5.00;;;1.53;;
14116;SDS011;7137;51.436;6.544;2023-08-07T13:18:38;6.10;;;1.50;;
14116;SDS011;7137;51.436;6.544;2023-08-07T13:21:40;5.93;;;1.60;;
14116;SDS011;7137;51.436;6.544;2023-08-07T13:24:42;4.03;;;1.63;;
14116;SDS011;7137;51.436;6.544;2023-08-07T13:27:44;5.17;;;1.63;;
14116;SDS011;7137;51.436;6.544;2023-08-07T13:30:45;6.83;;;1.60;;
14116;SDS011;7137;51.436;6.544;2023-08-07T13:33:48;5.47;;;2.07;;
14116;SDS011;7137;51.436;6.544;2023-08-07T13:36:50;5.10;;;1.73;;
14116;SDS011;7137;51.436;6.544;2023-08-07T13:39:51;4.33;;;1.57;;
14116;SDS011;7137;51.436;6.544;2023-08-07T13:42:54;3.67;;;1.60;;
14116;SDS011;7137;51.436;6.544;2023-08-07T13:45:55;5.47;;;1.50;;
14116;SDS011;7137;51.436;6.544;2023-08-07T13:48:58;5.10;;;1.53;;
14116;SDS011;7137;51.436;6.544;2023-08-07T13:52:00;3.33;;;1.60;;
14116;SDS011;7137;51.436;6.544;2023-08-07T13:55:02;5.43;;;1.80;;
14116;SDS011;7137;51.436;6.544;2023-08-07T13:58:04;3.37;;;1.50;;
14116;SDS011;7137;51.436;6.544;2023-08-07T14:01:05;3.50;;;1.30;;
14116;SDS011;7137;51.436;6.544;2023-08-07T14:04:09;4.70;;;1.60;;
14116;SDS011;7137;51.436;6.544;2023-08-07T14:07:11;3.97;;;1.57;;
14116;SDS011;7137;51.436;6.544;2023-08-07T14:10:13;4.93;;;1.33;;
14116;SDS011;7137;51.436;6.544;2023-08-07T14:13:15;3.67;;;1.30;;
14116;SDS011;7137;51.436;6.544;2023-08-07T14:16:17;3.57;;;1.40;;
14116;SDS011;7137;51.436;6.544;2023-08-07T14:19:20;4.50;;;1.43;;
14116;SDS011;7137;51.436;6.544;2023-08-07T14:22:21;4.20;;;1.50;;
14116;SDS011;7137;51.436;6.544;2023-08-07T14:25:27;3.30;;;1.47;;
14116;SDS011;7137;51.436;6.544;2023-08-07T14:28:31;3.90;;;1.50;;
14116;SDS011;7137;51.436;6.544;2023-08-07T14:31:33;5.30;;;1.47;;
14116;SDS011;7137;51.436;6.544;2023-08-07T14:34:36;4.60;;;1.50;;
14116;SDS011;7137;51.436;6.544;2023-08-07T14:37:38;4.23;;;1.73;;
14116;SDS011;7137;51.436;6.544;2023-08-07T14:40:40;3.83;;;1.47;;
14116;SDS011;7137;51.436;6.544;2023-08-07T14:43:43;4.93;;;1.70;;
14116;SDS011;7137;51.436;6.544;2023-08-07T14:46:45;4.00;;;1.70;;
14116;SDS011;7137;51.436;6.544;2023-08-07T14:49:48;4.53;;;1.60;;
14116;SDS011;7137;51.436;6.544;2023-08-07T14:52:50;7.00;;;1.90;;
14116;SDS011;7137;51.436;6.544;2023-08-07T14:55:52;4.83;;;1.60;;
14116;SDS011;7137;51.436;6.544;2023-08-07T14:58:53;6.03;;;1.80;;
14116;SDS011;7137;51.436;6.544;2023-08-07T15:01:55;4.50;;;1.73;;
14116;SDS011;7137;51.436;6.544;2023-08-07T15:04:58;4.03;;;1.73;;
14116;SDS011;7137;51.436;6.544;2023-08-07T15:08:00;3.70;;;1.80;;
14116;SDS011;7137;51.436;6.544;2023-08-07T15:11:01;4.50;;;1.90;;
14116;SDS011;7137;51.436;6.544;2023-08-07T15:14:03;6.63;;;2.20;;
14116;SDS011;7137;51.436;6.544;2023-08-07T15:17:05;4.43;;;2.10;;
14116;SDS011;7137;51.436;6.544;2023-08-07T15:20:09;6.50;;;2.13;;
14116;SDS011;7137;51.436;6.544;2023-08-07T15:23:11;4.73;;;2.20;;
14116;SDS011;7137;51.436;6.544;2023-08-07T15:26:13;6.60;;;1.90;;
14116;SDS011;7137;51.436;6.544;2023-08-07T15:29:14;4.87;;;1.83;;
14116;SDS011;7137;51.436;6.544;2023-08-07T15:32:16;6.00;;;1.93;;
14116;SDS011;7137;51.436;6.544;2023-08-07T15:35:20;4.73;;;1.83;;
14116;SDS011;7137;51.436;6.544;2023-08-07T15:38:23;5.20;;;2.00;;
14116;SDS011;7137;51.436;6.544;2023-08-07T15:41:25;6.33;;;2.13;;
14116;SDS011;7137;51.436;6.544;2023-08-07T15:44:27;6.43;;;1.90;;
14116;SDS011;7137;51.436;6.544;2023-08-07T15:47:28;5.23;;;1.60;;
14116;SDS011;7137;51.436;6.544;2023-08-07T15:50:31;5.20;;;1.80;;
14116;SDS011;7137;51.436;6.544;2023-08-07T15:53:36;5.57;;;1.80;;
14116;SDS011;7137;51.436;6.544;2023-08-07T15:56:38;3.73;;;1.83;;
14116;SDS011;7137;51.436;6.544;2023-08-07T15:59:39;5.33;;;1.73;;
14116;SDS011;7137;51.436;6.544;2023-08-07T16:02:41;2.67;;;1.53;;
14116;SDS011;7137;51.436;6.544;2023-08-07T16:05:44;5.10;;;1.80;;
14116;SDS011;7137;51.436;6.544;2023-08-07T16:08:46;4.13;;;1.90;;
14116;SDS011;7137;51.436;6.544;2023-08-07T16:11:48;4.80;;;1.80;;
14116;SDS011;7137;51.436;6.544;2023-08-07T16:14:49;4.33;;;1.70;;
14116;SDS011;7137;51.436;6.544;2023-08-07T16:17:51;4.40;;;1.67;;
14116;SDS011;7137;51.436;6.544;2023-08-07T16:20:54;4.57;;;1.97;;
14116;SDS011;7137;51.436;6.544;2023-08-07T16:23:56;4.20;;;1.90;;
14116;SDS011;7137;51.436;6.544;2023-08-07T16:26:58;3.67;;;1.70;;
14116;SDS011;7137;51.436;6.544;2023-08-07T16:30:00;3.27;;;1.67;;
14116;SDS011;7137;51.436;6.544;2023-08-07T16:33:04;5.00;;;1.93;;
14116;SDS011;7137;51.436;6.544;2023-08-07T16:36:07;4.37;;;1.60;;
14116;SDS011;7137;51.436;6.544;2023-08-07T16:39:09;5.70;;;1.80;;
14116;SDS011;7137;51.436;6.544;2023-08-07T16:42:10;3.40;;;1.33;;
14116;SDS011;7137;51.436;6.544;2023-08-07T16:45:12;3.93;;;1.60;;
14116;SDS011;7137;51.436;6.544;2023-08-07T16:48:14;4.23;;;1.67;;
14116;SDS011;7137;51.436;6.544;2023-08-07T16:51:17;3.77;;;1.90;;
14116;SDS011;7137;51.436;6.544;2023-08-07T16:54:19;4.67;;;2.00;;
14116;SDS011;7137;51.436;6.544;2023-08-07T16:57:21;3.53;;;2.00;;
14116;SDS011;7137;51.436;6.544;2023-08-07T17:00:23;3.77;;;1.97;;
14116;SDS011;7137;51.436;6.544;2023-08-07T17:03:25;5.87;;;1.70;;
14116;SDS011;7137;51.436;6.544;2023-08-07T17:06:28;5.03;;;1.77;;
14116;SDS011;7137;51.436;6.544;2023-08-07T17:09:29;3.50;;;1.60;;
14116;SDS011;7137;51.436;6.544;2023-08-07T17:12:31;3.77;;;1.70;;
14116;SDS011;7137;51.436;6.544;2023-08-07T17:15:33;3.97;;;1.90;;
14116;SDS011;7137;51.436;6.544;2023-08-07T17:18:34;5.10;;;2.23;;
14116;SDS011;7137;51.436;6.544;2023-08-07T17:21:37;3.87;;;1.63;;
14116;SDS011;7137;51.436;6.544;2023-08-07T17:24:39;2.97;;;1.80;;
14116;SDS011;7137;51.436;6.544;2023-08-07T17:27:40;3.83;;;1.70;;
14116;SDS011;7137;51.436;6.544;2023-08-07T17:30:42;3.90;;;1.80;;
14116;SDS011;7137;51.436;6.544;2023-08-07T17:33:44;6.13;;;1.90;;
14116;SDS011;7137;51.436;6.544;2023-08-07T17:36:46;3.87;;;1.80;;
14116;SDS011;7137;51.436;6.544;2023-08-07T17:39:48;4.13;;;1.70;;
14116;SDS011;7137;51.436;6.544;2023-08-07T17:42:50;3.90;;;1.80;;
14116;SDS011;7137;51.436;6.544;2023-08-07T17:45:51;4.27;;;1.90;;
14116;SDS011;7137;51.436;6.544;2023-08-07T17:48:53;3.90;;;1.70;;
14116;SDS011;7137;51.436;6.544;2023-08-07T17:51:56;4.17;;;2.00;;
14116;SDS011;7137;51.436;6.544;2023-08-07T17:54:57;4.37;;;2.00;;
14116;SDS011;7137;51.436;6.544;2023-08-07T17:58:00;4.07;;;1.67;;
14116;SDS011;7137;51.436;6.544;2023-08-07T18:01:02;3.17;;;1.80;;
14116;SDS011;7137;51.436;6.544;2023-08-07T18:04:04;4.47;;;1.70;;
14116;SDS011;7137;51.436;6.544;2023-08-07T18:07:07;3.87;;;1.60;;
14116;SDS011;7137;51.436;6.544;2023-08-07T18:10:08;4.23;;;1.93;;
14116;SDS011;7137;51.436;6.544;2023-08-07T18:13:11;4.50;;;2.00;;
14116;SDS011;7137;51.436;6.544;2023-08-07T18:16:13;4.17;;;2.03;;
14116;SDS011;7137;51.436;6.544;2023-08-07T18:19:15;4.00;;;1.80;;
14116;SDS011;7137;51.436;6.544;2023-08-07T18:22:18;3.97;;;2.00;;
14116;SDS011;7137;51.436;6.544;2023-08-07T18:25:20;4.27;;;1.80;;
14116;SDS011;7137;51.436;6.544;2023-08-07T18:28:21;4.10;;;2.00;;
14116;SDS011;7137;51.436;6.544;2023-08-07T18:31:23;3.53;;;1.97;;